Time;durP1;ratioP1;P1;durP2;ratioP2;P2;SDS_P1;SDS_P2;PMS_P1;PMS_P2;Temp;Humidity;BMP_temperature;BMP_pressure;BME280_temperature;BME280_humidity;BME280_pressure;Samples;Min_cycle;Max_cycle;Signal;HPM_P1;HPM_P2
2023/06/28 00:01:01;;;;;;;8.00;5.50;;;;;;;18.76;92.17;94376.13;5114172;27;20198;-74
2023/06/28 00:03:28;;;;;;;12.90;5.07;;;;;;;18.74;92.55;94381.19;5112135;27;20210;-74
2023/06/28 00:05:55;;;;;;;7.97;4.88;;;;;;;18.73;91.92;94371.38;5093903;28;20206;-73
2023/06/28 00:08:22;;;;;;;9.82;5.68;;;;;;;18.66;92.31;94379.59;5121784;27;20205;-73
2023/06/28 00:10:50;;;;;;;7.00;5.30;;;;;;;18.58;92.69;94378.78;5117771;27;20574;-74
2023/06/28 00:13:17;;;;;;;8.85;5.15;;;;;;;18.34;93.27;94382.91;5121897;27;20254;-73
2023/06/28 00:15:45;;;;;;;9.13;5.47;;;;;;;18.39;92.98;94381.78;5124904;27;20270;-73
2023/06/28 00:18:12;;;;;;;7.63;5.15;;;;;;;18.38;92.77;94378.25;5122689;27;20233;-73
2023/06/28 00:20:40;;;;;;;8.57;5.97;;;;;;;18.32;93.33;94379.75;5118056;27;20216;-73
2023/06/28 00:23:08;;;;;;;7.13;4.97;;;;;;;18.27;93.96;94377.41;5120166;27;20212;-73
2023/06/28 00:25:35;;;;;;;6.47;5.32;;;;;;;18.25;94.12;94378.94;5125033;27;20205;-74
2023/06/28 00:28:04;;;;;;;8.55;5.50;;;;;;;18.14;95.09;94381.63;5123588;27;20205;-73
2023/06/28 00:30:31;;;;;;;7.60;5.72;;;;;;;17.97;95.67;94379.53;5117623;27;20208;-73
2023/06/28 00:32:58;;;;;;;11.52;6.15;;;;;;;17.97;95.85;94387.75;5118279;27;20213;-73
2023/06/28 00:35:25;;;;;;;11.90;6.53;;;;;;;17.98;96.10;94386.59;5124647;27;20645;-73
2023/06/28 00:37:52;;;;;;;10.02;5.85;;;;;;;17.97;96.46;94385.03;5110766;28;20241;-73
2023/06/28 00:40:19;;;;;;;8.07;5.88;;;;;;;17.98;96.48;94389.34;5115373;27;20225;-73
2023/06/28 00:42:45;;;;;;;11.65;5.53;;;;;;;18.04;96.25;94385.09;5122753;27;20236;-74
2023/06/28 00:45:14;;;;;;;13.00;5.80;;;;;;;18.00;96.08;94385.06;5104943;27;20233;-73
2023/06/28 00:47:43;;;;;;;7.15;5.07;;;;;;;18.00;96.25;94376.84;5117928;27;20213;-74
2023/06/28 00:50:11;;;;;;;8.82;6.13;;;;;;;17.95;95.90;94379.13;5118167;27;20211;-73
2023/06/28 00:52:38;;;;;;;9.68;6.00;;;;;;;17.97;95.91;94385.03;5103027;27;20206;-74
2023/06/28 00:55:05;;;;;;;7.85;5.82;;;;;;;17.92;95.98;94385.38;5102652;28;20210;-73
2023/06/28 00:57:32;;;;;;;9.95;5.70;;;;;;;17.98;95.47;94381.13;5107130;27;20226;-73
2023/06/28 01:00:00;;;;;;;9.40;5.38;;;;;;;18.02;95.02;94376.47;5121956;27;20664;-73
2023/06/28 01:02:29;;;;;;;7.70;5.50;;;;;;;18.01;94.38;94380.38;5124445;27;20212;-74
2023/06/28 01:04:57;;;;;;;8.95;4.82;;;;;;;17.94;94.37;94380.28;5120261;27;20197;-73
2023/06/28 01:07:27;;;;;;;10.75;5.28;;;;;;;17.99;94.00;94388.19;5117500;27;20201;-73
2023/06/28 01:09:56;;;;;;;12.70;6.15;;;;;;;17.84;95.16;94383.75;5120070;27;20648;-73
2023/06/28 01:12:24;;;;;;;8.30;6.38;;;;;;;17.85;96.09;94383.38;5124332;27;20300;-74
2023/06/28 01:14:51;;;;;;;9.88;6.07;;;;;;;17.96;96.51;94377.97;5099665;28;20202;-74
2023/06/28 01:17:18;;;;;;;9.10;5.93;;;;;;;17.77;96.84;94386.44;5112274;27;20236;-73
2023/06/28 01:19:46;;;;;;;9.13;6.50;;;;;;;17.74;97.32;94383.28;5119958;27;20202;-73
2023/06/28 01:22:14;;;;;;;10.18;6.65;;;;;;;17.72;97.64;94380.13;5124021;27;20198;-73
2023/06/28 01:24:46;;;;;;;12.50;6.57;;;;;;;17.72;97.54;94377.41;5121598;27;20731;-73
2023/06/28 01:27:14;;;;;;;9.43;6.13;;;;;;;17.81;97.02;94379.00;5116483;27;20352;-73
2023/06/28 01:29:42;;;;;;;12.00;6.30;;;;;;;17.74;97.44;94383.28;5118566;27;20203;-74
2023/06/28 01:32:09;;;;;;;8.77;6.03;;;;;;;17.70;97.96;94381.69;5123804;27;20610;-73
2023/06/28 01:34:36;;;;;;;8.75;5.28;;;;;;;17.72;97.06;94382.88;5123012;27;20211;-73
2023/06/28 01:37:04;;;;;;;7.50;5.32;;;;;;;17.71;96.85;94389.53;5116161;28;20228;-73
2023/06/28 01:39:32;;;;;;;8.70;6.38;;;;;;;17.66;97.20;94378.09;5117305;28;20237;-74
2023/06/28 01:42:01;;;;;;;8.02;5.65;;;;;;;17.71;97.16;94389.53;5103010;28;20381;-73
2023/06/28 01:44:29;;;;;;;10.60;6.10;;;;;;;17.60;97.50;94385.88;5117850;28;20204;-73
2023/06/28 01:46:57;;;;;;;10.10;5.88;;;;;;;17.66;97.31;94391.81;5121880;27;20201;-73
2023/06/28 01:49:25;;;;;;;9.73;6.13;;;;;;;17.53;97.53;94393.22;5121449;27;20571;-73
2023/06/28 01:51:53;;;;;;;8.57;6.10;;;;;;;17.55;97.82;94397.16;5126382;27;20202;-73
2023/06/28 01:54:20;;;;;;;9.73;5.88;;;;;;;17.47;97.61;94395.53;5127881;27;20277;-73
2023/06/28 01:56:47;;;;;;;8.88;6.43;;;;;;;17.46;97.75;94396.69;5123001;27;20269;-73
2023/06/28 01:59:15;;;;;;;9.13;6.20;;;;;;;17.37;97.21;94401.66;5120615;27;20767;-73
2023/06/28 02:01:44;;;;;;;9.52;6.72;;;;;;;17.32;97.24;94404.78;5125096;27;20239;-73
2023/06/28 02:04:11;;;;;;;8.13;6.50;;;;;;;17.39;96.83;94399.34;5127907;27;20204;-73
2023/06/28 02:06:40;;;;;;;8.30;6.72;;;;;;;17.35;96.59;94399.34;5123402;27;20197;-73
2023/06/28 02:09:07;;;;;;;8.50;6.18;;;;;;;17.39;97.26;94400.13;5120846;27;20248;-73
2023/06/28 02:11:33;;;;;;;10.63;7.07;;;;;;;17.35;97.05;94404.03;5124435;27;20209;-73
2023/06/28 02:14:00;;;;;;;8.70;6.53;;;;;;;17.35;97.36;94415.78;5127328;27;20228;-73
2023/06/28 02:16:30;;;;;;;9.93;6.50;;;;;;;17.34;96.75;94407.94;5123372;27;20631;-73
2023/06/28 02:18:57;;;;;;;11.10;8.38;;;;;;;17.29;96.55;94406.31;5120355;27;20655;-73
2023/06/28 02:21:24;;;;;;;8.50;7.45;;;;;;;17.32;95.61;94415.72;5123659;27;20209;-73
2023/06/28 02:23:51;;;;;;;10.70;9.57;;;;;;;17.52;94.60;94408.88;5127480;27;20310;-73
2023/06/28 02:26:18;;;;;;;14.20;9.95;;;;;;;17.69;93.76;94413.75;5124934;27;20710;-73
2023/06/28 02:28:45;;;;;;;17.25;8.02;;;;;;;17.87;93.34;94418.63;5120618;27;20209;-73
2023/06/28 02:31:12;;;;;;;12.15;8.10;;;;;;;18.01;92.94;94414.03;5123049;27;20212;-72
2023/06/28 02:33:40;;;;;;;13.18;10.07;;;;;;;18.04;92.97;94420.72;5127413;27;20637;-73
2023/06/28 02:36:07;;;;;;;14.77;10.43;;;;;;;18.08;92.63;94418.78;5123870;27;20283;-73
2023/06/28 02:38:34;;;;;;;14.05;10.38;;;;;;;17.92;94.23;94410.03;5120449;27;20228;-71
2023/06/28 02:41:00;;;;;;;14.93;10.35;;;;;;;17.87;94.18;94413.94;5122179;27;20200;-73
2023/06/28 02:43:27;;;;;;;10.90;8.48;;;;;;;17.86;94.35;94398.66;5108558;28;20657;-73
2023/06/28 02:45:54;;;;;;;11.20;8.40;;;;;;;17.85;94.99;94410.00;5108237;28;20221;-73
2023/06/28 02:48:21;;;;;;;17.25;8.70;;;;;;;17.79;95.41;94411.50;5118840;27;20547;-72
2023/06/28 02:50:49;;;;;;;15.50;9.70;;;;;;;17.73;95.77;94409.13;5120810;27;20602;-73
2023/06/28 02:53:16;;;;;;;16.15;11.52;;;;;;;17.71;96.36;94414.19;5112415;28;20783;-73
2023/06/28 02:55:42;;;;;;;12.73;10.27;;;;;;;17.68;96.49;94414.94;5110030;27;20201;-73
2023/06/28 02:58:09;;;;;;;12.95;9.25;;;;;;;17.64;96.85;94411.34;5112087;28;20869;-72
2023/06/28 03:00:37;;;;;;;14.02;9.85;;;;;;;17.69;96.62;94408.28;5110938;28;20576;-74
2023/06/28 03:03:08;;;;;;;19.50;10.48;;;;;;;17.68;96.77;94412.19;5112502;28;20190;-73
2023/06/28 03:05:35;;;;;;;17.83;10.48;;;;;;;17.65;96.89;94407.47;5114694;27;20635;-73
2023/06/28 03:08:04;;;;;;;13.25;10.57;;;;;;;17.73;96.90;94414.59;5106770;28;20559;-73
2023/06/28 03:10:30;;;;;;;14.52;10.95;;;;;;;17.82;96.32;94410.75;5112240;28;20644;-72
2023/06/28 03:12:57;;;;;;;14.88;11.27;;;;;;;17.90;95.94;94413.19;5112055;27;20230;-73
2023/06/28 03:15:24;;;;;;;16.30;10.90;;;;;;;18.03;94.62;94417.19;5113170;27;20637;-73
2023/06/28 03:17:51;;;;;;;15.10;11.18;;;;;;;18.18;93.83;94412.56;5125899;27;20229;-74
2023/06/28 03:20:20;;;;;;;13.70;9.68;;;;;;;18.35;92.54;94414.66;5114497;27;20540;-74
2023/06/28 03:22:46;;;;;;;14.95;10.27;;;;;;;18.48;91.51;94415.91;5101710;28;20225;-73
2023/06/28 03:25:15;;;;;;;14.93;9.73;;;;;;;18.70;90.20;94402.38;5109591;28;20656;-72
2023/06/28 03:27:42;;;;;;;12.18;8.45;;;;;;;18.80;89.18;94399.66;5106844;28;20205;-73
2023/06/28 03:30:09;;;;;;;15.23;10.27;;;;;;;18.96;88.54;94406.78;5111193;28;20262;-73
2023/06/28 03:32:36;;;;;;;14.93;10.20;;;;;;;19.16;87.35;94410.78;5099141;28;20280;-73
2023/06/28 03:35:03;;;;;;;17.65;10.77;;;;;;;19.46;85.50;94407.72;5110892;28;20200;-73
2023/06/28 03:37:29;;;;;;;14.75;11.30;;;;;;;19.68;84.16;94392.84;5110874;28;20233;-73
2023/06/28 03:39:56;;;;;;;15.13;11.60;;;;;;;20.12;82.32;94394.44;5112766;27;20224;-73
2023/06/28 03:42:24;;;;;;;13.10;10.40;;;;;;;20.10;81.50;94396.81;5102993;27;20309;-74
2023/06/28 03:44:51;;;;;;;15.52;11.50;;;;;;;20.32;80.77;94403.88;5111303;28;20198;-73
2023/06/28 03:47:18;;;;;;;8.15;7.13;;;;;;;20.38;80.05;94402.31;5110887;28;20216;-73
2023/06/28 03:49:46;;;;;;;13.13;10.90;;;;;;;20.49;80.31;94391.31;5110564;28;20649;-74
2023/06/28 03:52:12;;;;;;;15.35;11.18;;;;;;;20.84;78.57;94391.19;5110421;28;20653;-74
2023/06/28 03:54:40;;;;;;;15.82;14.00;;;;;;;20.98;77.69;94384.84;5109760;28;20425;-73
2023/06/28 03:57:07;;;;;;;16.92;13.40;;;;;;;21.54;75.96;94388.53;5097638;28;20206;-75
2023/06/28 03:59:35;;;;;;;16.50;12.23;;;;;;;21.46;75.82;94387.00;5106566;28;20230;-75
2023/06/28 04:02:02;;;;;;;16.38;12.70;;;;;;;21.50;75.93;94394.06;5089992;28;20210;-75
2023/06/28 04:04:29;;;;;;;15.85;12.38;;;;;;;22.03;73.63;94386.63;5108713;28;20678;-75
2023/06/28 04:06:56;;;;;;;14.10;10.90;;;;;;;22.00;73.56;94379.97;5109688;28;20205;-76
2023/06/28 04:09:22;;;;;;;14.57;10.10;;;;;;;22.13;72.72;94381.03;5118795;27;20197;-74
2023/06/28 04:11:49;;;;;;;16.38;13.00;;;;;;;22.28;72.13;94387.19;5090574;28;20883;-75
2023/06/28 04:14:16;;;;;;;15.52;10.02;;;;;;;23.38;68.58;94384.00;5090676;28;20229;-75
2023/06/28 04:16:44;;;;;;;14.43;12.40;;;;;;;23.79;67.08;94393.34;5090355;28;20677;-75
2023/06/28 04:19:11;;;;;;;15.30;12.23;;;;;;;24.31;65.33;94382.69;5090454;28;20233;-75
2023/06/28 04:21:38;;;;;;;13.40;11.90;;;;;;;23.44;67.54;94389.88;5102460;28;20213;-74
2023/06/28 04:24:05;;;;;;;12.75;9.45;;;;;;;23.05;69.23;94393.13;5110349;28;20209;-75
2023/06/28 04:26:32;;;;;;;14.02;10.40;;;;;;;23.63;67.67;94392.03;5110508;28;20205;-76
2023/06/28 04:28:59;;;;;;;14.65;11.13;;;;;;;25.08;63.39;94383.25;5110622;28;20629;-74
2023/06/28 04:31:26;;;;;;;13.48;10.98;;;;;;;23.82;66.15;94392.53;5110905;28;20209;-75
2023/06/28 04:33:55;;;;;;;12.55;11.25;;;;;;;23.81;65.91;94391.75;5110442;28;20617;-74
2023/06/28 04:36:22;;;;;;;12.70;10.63;;;;;;;23.18;68.98;94387.84;5110063;28;20258;-75
2023/06/28 04:38:52;;;;;;;17.98;12.48;;;;;;;23.20;68.55;94389.00;5096665;28;20676;-73
2023/06/28 04:41:19;;;;;;;13.88;12.40;;;;;;;23.01;69.16;94395.16;5124847;27;20543;-74
2023/06/28 04:43:46;;;;;;;12.73;11.35;;;;;;;23.99;66.59;94385.94;5096910;28;20236;-74
2023/06/28 04:46:13;;;;;;;13.02;11.63;;;;;;;24.36;64.58;94391.28;5111599;27;20197;-74
2023/06/28 04:48:40;;;;;;;13.20;11.45;;;;;;;24.02;65.41;94385.91;5122870;27;20615;-73
2023/06/28 04:51:08;;;;;;;15.38;11.70;;;;;;;25.11;63.00;94387.94;5124349;27;20200;-75
2023/06/28 04:53:35;;;;;;;13.95;11.60;;;;;;;24.74;62.70;94386.25;5119733;27;20201;-74
2023/06/28 04:56:02;;;;;;;13.35;11.55;;;;;;;24.60;63.91;94392.03;5114962;27;20234;-74
2023/06/28 04:58:29;;;;;;;13.25;11.38;;;;;;;26.19;60.02;94396.28;5119567;27;20232;-75
2023/06/28 05:00:57;;;;;;;15.93;13.10;;;;;;;25.50;60.31;94403.78;5110686;28;20227;-76
2023/06/28 05:03:27;;;;;;;14.63;10.43;;;;;;;24.74;61.97;94402.88;5120387;27;20304;-74
2023/06/28 05:05:55;;;;;;;15.07;11.73;;;;;;;24.60;62.59;94411.44;5113014;27;20213;-75
2023/06/28 05:08:24;;;;;;;15.40;11.27;;;;;;;25.13;61.54;94418.03;5109733;28;20529;-74
2023/06/28 05:10:50;;;;;;;12.35;11.02;;;;;;;25.31;60.74;94407.34;5104488;28;20206;-71
2023/06/28 05:13:18;;;;;;;13.05;10.23;;;;;;;26.09;59.95;94414.00;5089426;28;20727;-74
2023/06/28 05:15:44;;;;;;;13.88;11.57;;;;;;;26.17;58.53;94407.03;5100785;28;20285;-74
2023/06/28 05:18:11;;;;;;;15.10;11.00;;;;;;;25.03;60.92;94421.75;5108037;28;20221;-73
2023/06/28 05:20:38;;;;;;;13.65;12.10;;;;;;;24.54;63.51;94420.66;5106845;28;20201;-76
2023/06/28 05:23:12;;;;;;;13.40;12.00;;;;;;;25.90;60.21;94403.72;5110401;27;20212;-76
2023/06/28 05:25:42;;;;;;;15.18;12.25;;;;;;;25.31;61.56;94406.56;5109349;28;20621;-76
2023/06/28 05:28:10;;;;;;;12.82;11.43;;;;;;;25.52;61.16;94419.22;5109749;28;20630;-77
2023/06/28 05:30:37;;;;;;;13.90;12.07;;;;;;;24.28;65.12;94420.31;5109364;28;20247;-73
2023/06/28 05:33:04;;;;;;;16.23;11.65;;;;;;;24.03;65.64;94423.44;5109138;28;20197;-74
2023/06/28 05:35:31;;;;;;;13.13;11.70;;;;;;;24.47;64.31;94410.47;5110334;27;20202;-75
2023/06/28 05:37:59;;;;;;;13.23;11.35;;;;;;;24.83;63.57;94402.31;5107742;28;20237;-74
2023/06/28 05:40:27;;;;;;;11.05;9.80;;;;;;;25.11;62.39;94409.34;5101657;28;20259;-75
2023/06/28 05:42:55;;;;;;;13.50;12.10;;;;;;;24.38;64.71;94413.78;5088827;28;20570;-75
2023/06/28 05:45:22;;;;;;;15.18;12.07;;;;;;;25.37;61.64;94411.19;5104155;28;20553;-76
2023/06/28 05:47:49;;;;;;;14.57;12.07;;;;;;;25.55;61.32;94410.03;5107828;28;20239;-74
2023/06/28 05:50:16;;;;;;;13.15;11.68;;;;;;;25.71;60.36;94408.09;5105677;28;20579;-76
2023/06/28 05:52:44;;;;;;;16.63;12.85;;;;;;;25.52;61.30;94416.44;5094838;28;20210;-75
2023/06/28 05:55:11;;;;;;;14.75;11.88;;;;;;;25.73;60.83;94410.44;5097201;28;20214;-74
2023/06/28 05:57:37;;;;;;;18.08;12.93;;;;;;;25.08;63.01;94410.19;5111046;28;20210;-75
2023/06/28 06:00:07;;;;;;;15.75;13.80;;;;;;;25.32;62.36;94408.91;5125190;28;20643;-75
2023/06/28 06:02:34;;;;;;;15.30;13.13;;;;;;;24.37;64.38;94412.22;5097630;28;20221;-76
2023/06/28 06:05:02;;;;;;;14.38;12.88;;;;;;;25.90;60.53;94403.72;5095242;28;20267;-78
2023/06/28 06:07:30;;;;;;;16.00;12.75;;;;;;;26.94;58.32;94402.75;5108293;28;20201;-78
2023/06/28 06:09:57;;;;;;;16.08;12.48;;;;;;;27.00;56.69;94400.22;5099726;28;20206;-78
2023/06/28 06:12:24;;;;;;;15.68;13.30;;;;;;;25.73;58.97;94404.88;5105457;28;20213;-74
2023/06/28 06:14:51;;;;;;;18.05;14.90;;;;;;;25.33;59.89;94410.47;5109141;28;20205;-74
2023/06/28 06:17:20;;;;;;;18.38;13.90;;;;;;;25.88;60.38;94405.34;5108853;28;20209;-76
2023/06/28 06:19:46;;;;;;;15.55;13.52;;;;;;;27.02;56.91;94400.59;5108947;28;20337;-75
2023/06/28 06:22:14;;;;;;;15.80;13.30;;;;;;;27.82;53.23;94401.47;5108969;28;20714;-74
2023/06/28 06:24:40;;;;;;;15.52;13.80;;;;;;;28.37;52.49;94407.72;5109135;28;20208;-74
2023/06/28 06:27:09;;;;;;;14.07;12.15;;;;;;;26.78;56.13;94414.69;5107750;28;20202;-73
2023/06/28 06:29:36;;;;;;;15.35;13.68;;;;;;;25.47;59.40;94421.25;5108148;28;20648;-75
2023/06/28 06:32:03;;;;;;;15.13;13.45;;;;;;;27.15;56.95;94404.97;5110371;28;20206;-74
2023/06/28 06:34:31;;;;;;;17.88;14.20;;;;;;;26.21;58.15;94412.53;5112498;28;20213;-73
2023/06/28 06:36:58;;;;;;;15.63;14.00;;;;;;;26.75;56.84;94407.22;5120794;27;20268;-76
2023/06/28 06:39:24;;;;;;;15.40;13.80;;;;;;;26.23;58.25;94414.88;5091908;28;20706;-75
2023/06/28 06:41:51;;;;;;;16.63;13.48;;;;;;;26.77;57.47;94412.34;5091723;28;20657;-76
2023/06/28 06:44:18;;;;;;;15.65;13.50;;;;;;;26.61;56.96;94413.16;5093616;28;20629;-77
2023/06/28 06:46:45;;;;;;;16.40;13.70;;;;;;;26.34;58.25;94418.19;5112285;28;20254;-78
2023/06/28 06:49:11;;;;;;;15.05;13.48;;;;;;;25.85;58.81;94413.31;5112242;28;20286;-80
2023/06/28 06:51:39;;;;;;;17.38;14.15;;;;;;;26.63;57.21;94416.28;5112930;28;20212;-79
2023/06/28 06:54:08;;;;;;;16.92;13.68;;;;;;;26.30;58.06;94414.72;5112385;28;20213;-77
2023/06/28 06:56:34;;;;;;;20.65;14.38;;;;;;;27.60;54.31;94393.00;5112058;28;20645;-77
2023/06/28 06:59:02;;;;;;;15.05;13.55;;;;;;;27.45;54.31;94395.38;5111945;28;20287;-78
2023/06/28 07:01:29;;;;;;;16.20;13.02;;;;;;;26.82;55.80;94407.00;5098967;28;20297;-80
2023/06/28 07:03:56;;;;;;;14.15;12.68;;;;;;;25.97;57.87;94409.09;5112075;28;20237;-73
2023/06/28 07:06:23;;;;;;;14.75;13.25;;;;;;;26.13;57.97;94406.34;5111352;28;20214;-72
2023/06/28 07:08:51;;;;;;;16.02;13.05;;;;;;;27.03;54.67;94399.38;5112253;28;20249;-75
2023/06/28 07:11:18;;;;;;;16.50;12.23;;;;;;;26.24;57.26;94421.97;5119454;27;20196;-74
2023/06/28 07:13:45;;;;;;;14.95;12.43;;;;;;;26.19;56.80;94421.28;5103278;27;20728;-73
2023/06/28 07:16:12;;;;;;;13.93;12.43;;;;;;;25.90;57.73;94414.81;5111581;28;20217;-76
2023/06/28 07:18:39;;;;;;;14.80;11.85;;;;;;;26.14;57.57;94407.91;5113361;27;20719;-75
2023/06/28 07:21:06;;;;;;;12.18;10.98;;;;;;;26.87;56.13;94403.72;5116188;27;20685;-75
2023/06/28 07:23:33;;;;;;;12.77;11.32;;;;;;;25.90;58.63;94406.50;5093489;28;20198;-75
2023/06/28 07:26:01;;;;;;;13.52;11.52;;;;;;;25.77;57.56;94402.81;5120427;27;20197;-75
2023/06/28 07:28:27;;;;;;;15.07;12.07;;;;;;;25.70;59.63;94414.06;5102131;27;20208;-76
2023/06/28 07:30:55;;;;;;;16.17;11.82;;;;;;;25.48;59.19;94411.75;5091299;28;20693;-75
2023/06/28 07:33:23;;;;;;;12.38;10.85;;;;;;;26.42;57.28;94416.78;5091290;28;20233;-70
2023/06/28 07:35:50;;;;;;;11.90;10.45;;;;;;;25.77;58.74;94411.16;5091189;28;20832;-72
2023/06/28 07:38:18;;;;;;;14.30;11.90;;;;;;;24.85;60.46;94413.00;5090779;28;20288;-73
2023/06/28 07:40:45;;;;;;;14.88;12.05;;;;;;;24.47;62.90;94418.00;5091034;28;20579;-75
2023/06/28 07:43:13;;;;;;;13.20;11.32;;;;;;;25.05;62.72;94416.56;5106130;28;20310;-76
2023/06/28 07:45:40;;;;;;;13.50;11.32;;;;;;;23.75;64.76;94432.16;5101180;28;20217;-75
2023/06/28 07:48:08;;;;;;;14.75;11.57;;;;;;;24.24;64.29;94421.56;5118269;27;20206;-77
2023/06/28 07:50:36;;;;;;;15.55;11.82;;;;;;;23.90;64.69;94421.66;5091080;28;20683;-75
2023/06/28 07:53:04;;;;;;;12.50;11.20;;;;;;;23.88;63.91;94422.09;5090136;28;20202;-77
2023/06/28 07:55:31;;;;;;;14.13;11.10;;;;;;;23.88;64.58;94426.84;5101528;28;20648;-78
2023/06/28 07:57:58;;;;;;;13.38;11.20;;;;;;;23.94;64.23;94428.69;5109856;28;20685;-76
2023/06/28 08:00:27;;;;;;;12.10;10.85;;;;;;;24.03;62.73;94415.13;5099678;28;20287;-75
2023/06/28 08:02:54;;;;;;;12.48;10.30;;;;;;;24.33;62.17;94430.09;5109767;28;20225;-76
2023/06/28 08:05:21;;;;;;;13.70;10.27;;;;;;;23.80;62.95;94423.38;5122639;27;20660;-77
2023/06/28 08:07:48;;;;;;;13.65;10.02;;;;;;;24.18;62.94;94420.44;5113033;27;20212;-75
2023/06/28 08:10:15;;;;;;;13.18;10.02;;;;;;;24.75;60.66;94418.28;5122987;27;20562;-76
2023/06/28 08:12:42;;;;;;;12.85;8.80;;;;;;;24.84;60.01;94416.97;5094071;27;20283;-72
2023/06/28 08:15:09;;;;;;;10.68;8.73;;;;;;;25.12;60.43;94413.69;5090839;28;20255;-76
2023/06/28 08:17:37;;;;;;;12.57;9.27;;;;;;;24.72;60.26;94421.94;5090341;28;20361;-77
2023/06/28 08:20:05;;;;;;;12.40;9.30;;;;;;;24.97;59.13;94421.50;5090703;28;20234;-77
2023/06/28 08:22:32;;;;;;;10.57;8.35;;;;;;;25.70;56.36;94416.84;5090402;28;20206;-74
2023/06/28 08:24:59;;;;;;;10.68;8.63;;;;;;;26.83;52.97;94411.34;5090449;28;20206;-77
2023/06/28 08:27:25;;;;;;;10.60;8.50;;;;;;;27.04;53.91;94409.28;5090244;28;20217;-75
2023/06/28 08:29:52;;;;;;;12.38;8.48;;;;;;;27.66;50.96;94396.00;5090214;28;20275;-76
2023/06/28 08:32:19;;;;;;;10.50;8.45;;;;;;;27.10;52.12;94401.94;5090158;28;20202;-76
2023/06/28 08:34:47;;;;;;;10.23;8.88;;;;;;;26.62;51.15;94398.03;5103032;28;20365;-75
2023/06/28 08:37:14;;;;;;;9.77;8.63;;;;;;;26.41;54.13;94398.56;5109978;28;20232;-75
2023/06/28 08:39:41;;;;;;;10.10;8.60;;;;;;;25.98;54.35;94398.78;5110092;28;20585;-72
2023/06/28 08:42:08;;;;;;;10.48;9.38;;;;;;;26.10;52.85;94396.09;5109418;28;20220;-74
2023/06/28 08:44:39;;;;;;;10.30;9.00;;;;;;;26.21;52.48;94387.53;5116165;27;20201;-76
2023/06/28 08:47:07;;;;;;;11.07;9.07;;;;;;;26.73;53.57;94392.97;5098618;28;20251;-76
2023/06/28 08:49:36;;;;;;;10.18;8.30;;;;;;;27.00;51.46;94386.34;5110391;28;20202;-76
2023/06/28 08:52:06;;;;;;;12.32;8.57;;;;;;;27.54;50.14;94384.38;5110549;28;20213;-76
2023/06/28 08:54:34;;;;;;;9.50;8.60;;;;;;;27.50;49.71;94378.13;5109099;28;20205;-77
2023/06/28 08:57:02;;;;;;;11.75;8.80;;;;;;;26.93;50.47;94392.84;5109719;28;20205;-77
2023/06/28 08:59:30;;;;;;;10.85;8.63;;;;;;;26.28;52.94;94389.34;5106993;28;20311;-77
2023/06/28 09:01:59;;;;;;;11.38;8.55;;;;;;;27.21;49.92;94378.16;5089980;28;20283;-76
2023/06/28 09:04:27;;;;;;;9.45;8.30;;;;;;;25.81;52.50;94389.66;5089154;28;20206;-73
2023/06/28 09:06:56;;;;;;;10.65;8.85;;;;;;;25.90;53.49;94380.72;5089529;28;20592;-76
2023/06/28 09:09:26;;;;;;;10.85;9.02;;;;;;;25.94;53.22;94390.53;5108012;28;20221;-76
2023/06/28 09:11:53;;;;;;;11.73;8.18;;;;;;;25.06;56.54;94391.22;5110501;28;20213;-76
2023/06/28 09:14:20;;;;;;;10.75;8.68;;;;;;;24.76;58.01;94394.91;5109615;28;20212;-75
2023/06/28 09:16:46;;;;;;;11.40;9.02;;;;;;;25.20;57.25;94384.59;5110057;28;20210;-76
2023/06/28 09:19:13;;;;;;;11.90;8.70;;;;;;;25.23;56.13;94380.19;5117626;27;20283;-76
2023/06/28 09:21:40;;;;;;;10.98;8.15;;;;;;;24.45;57.22;94379.69;5089666;28;20218;-72
2023/06/28 09:24:11;;;;;;;12.85;9.18;;;;;;;24.28;59.14;94375.22;5089216;28;20297;-75
2023/06/28 09:26:42;;;;;;;10.73;9.38;;;;;;;24.87;56.47;94372.56;5102771;28;20197;-75
2023/06/28 09:29:10;;;;;;;8.98;8.00;;;;;;;25.26;57.44;94369.03;5109420;28;20233;-74
2023/06/28 09:31:40;;;;;;;11.23;8.63;;;;;;;25.43;55.54;94375.38;5109954;28;20209;-76
2023/06/28 09:34:06;;;;;;;9.52;8.50;;;;;;;25.84;54.80;94355.47;5109140;28;20197;-76
2023/06/28 09:36:34;;;;;;;9.73;7.95;;;;;;;26.37;53.39;94353.44;5109769;28;20321;-75
2023/06/28 09:39:04;;;;;;;11.18;8.73;;;;;;;25.94;53.65;94353.69;5109402;28;20257;-75
2023/06/28 09:41:39;;;;;;;10.60;9.25;;;;;;;26.65;52.21;94351.91;5109383;28;20208;-76
2023/06/28 09:44:07;;;;;;;10.90;8.52;;;;;;;26.99;49.99;94356.97;5109027;28;20285;-76
2023/06/28 09:46:34;;;;;;;11.60;8.82;;;;;;;26.36;51.48;94358.22;5111262;28;20321;-76
2023/06/28 09:49:01;;;;;;;10.50;8.80;;;;;;;26.03;52.68;94362.94;5107628;28;20213;-75
2023/06/28 09:51:28;;;;;;;12.38;9.20;;;;;;;25.52;54.16;94372.06;5088954;28;20210;-72
2023/06/28 09:53:56;;;;;;;10.60;9.50;;;;;;;24.98;56.14;94366.84;5088869;28;20227;-76
2023/06/28 09:56:32;;;;;;;10.15;9.13;;;;;;;26.05;52.48;94354.97;5088593;28;20262;-74
2023/06/28 09:59:03;;;;;;;9.68;8.68;;;;;;;26.07;53.66;94358.09;5093086;28;20197;-71
2023/06/28 10:01:30;;;;;;;9.93;8.93;;;;;;;26.44;52.86;94353.25;5109440;28;20206;-76
2023/06/28 10:03:58;;;;;;;10.77;9.68;;;;;;;26.91;52.39;94359.16;5109113;28;20609;-76
2023/06/28 10:06:26;;;;;;;12.68;8.90;;;;;;;26.38;51.84;94354.97;5096769;28;20262;-75
2023/06/28 10:08:53;;;;;;;10.40;8.82;;;;;;;26.48;50.89;94353.94;5113166;28;20201;-75
2023/06/28 10:11:21;;;;;;;10.10;9.00;;;;;;;25.65;54.38;94357.13;5113559;28;20209;-75
2023/06/28 10:13:50;;;;;;;10.20;8.52;;;;;;;25.82;53.27;94352.38;5113441;28;20270;-73
2023/06/28 10:16:22;;;;;;;11.77;8.80;;;;;;;25.94;54.51;94348.91;5112979;28;20205;-73
2023/06/28 10:18:50;;;;;;;10.23;8.75;;;;;;;26.13;52.74;94356.34;5113056;28;20823;-74
2023/06/28 10:21:17;;;;;;;9.85;8.52;;;;;;;26.37;52.12;94353.44;5113024;28;20237;-75
2023/06/28 10:23:45;;;;;;;11.10;8.95;;;;;;;26.86;51.26;94346.53;5113101;28;20213;-74
2023/06/28 10:26:14;;;;;;;12.13;8.80;;;;;;;27.12;51.13;94329.97;5113095;28;20209;-76
2023/06/28 10:28:41;;;;;;;9.38;8.02;;;;;;;27.65;49.63;94341.53;5123810;27;20210;-74
2023/06/28 10:31:08;;;;;;;13.32;9.13;;;;;;;27.25;51.31;94339.13;5092751;28;20221;-70
2023/06/28 10:33:37;;;;;;;10.05;9.02;;;;;;;26.93;52.05;94340.03;5092255;28;20561;-76
2023/06/28 10:36:05;;;;;;;10.55;8.70;;;;;;;27.42;49.81;94335.03;5091748;28;20203;-75
2023/06/28 10:38:33;;;;;;;11.85;9.30;;;;;;;27.70;48.26;94336.22;5095334;28;20230;-75
2023/06/28 10:41:01;;;;;;;11.10;8.30;;;;;;;27.81;48.98;94335.88;5112226;28;20230;-74
2023/06/28 10:43:28;;;;;;;10.55;8.77;;;;;;;28.23;50.50;94337.31;5121652;27;20245;-76
2023/06/28 10:45:55;;;;;;;10.07;8.60;;;;;;;27.65;49.58;94339.53;5107654;28;20206;-74
2023/06/28 10:48:23;;;;;;;10.57;9.48;;;;;;;27.50;48.79;94333.59;5112031;28;20206;-76
2023/06/28 10:50:52;;;;;;;11.25;9.35;;;;;;;26.81;50.12;94330.41;5112501;28;20204;-74
2023/06/28 10:53:23;;;;;;;9.75;8.82;;;;;;;27.13;52.08;94332.31;5118469;27;20209;-73
2023/06/28 10:56:08;;;;;;;8.77;7.13;;;;;;;25.65;52.47;94343.22;5118827;27;20255;-69
2023/06/28 10:58:37;;;;;;;11.32;8.77;;;;;;;25.76;53.04;94326.34;5112344;28;20204;-72
2023/06/28 11:01:06;;;;;;;12.88;9.13;;;;;;;25.86;51.66;94330.84;5099229;28;20315;-75
2023/06/28 11:03:38;;;;;;;9.75;8.60;;;;;;;26.26;52.82;94319.53;5112811;28;20216;-75
2023/06/28 11:06:08;;;;;;;9.63;8.13;;;;;;;26.02;52.81;94333.63;5112371;28;20210;-74
2023/06/28 11:08:40;;;;;;;10.25;8.25;;;;;;;26.31;52.05;94339.28;5111927;28;20233;-75
2023/06/28 11:11:09;;;;;;;8.55;7.38;;;;;;;25.81;53.34;94331.38;5112485;28;20266;-71
2023/06/28 11:13:46;;;;;;;11.43;8.32;;;;;;;25.32;53.60;94341.56;5111362;28;20213;-72
2023/06/28 11:16:14;;;;;;;9.82;7.75;;;;;;;24.32;55.99;94342.72;5107088;27;20189;-73
2023/06/28 11:18:41;;;;;;;10.93;8.60;;;;;;;24.46;56.86;94336.94;5100870;27;20209;-76
2023/06/28 11:21:14;;;;;;;10.68;7.20;;;;;;;24.87;55.83;94328.22;5091577;28;20230;-73
2023/06/28 11:23:43;;;;;;;9.95;7.80;;;;;;;25.23;54.58;94336.59;5091636;28;20213;-75
2023/06/28 11:26:13;;;;;;;9.43;7.32;;;;;;;25.03;54.39;94341.38;5091334;28;20297;-71